createdAt,value
2019-03-23T00:01:03.043Z,92.60
2019-03-23T00:03:33.525Z,92.40
2019-03-23T00:06:03.915Z,92.30
2019-03-23T00:08:34.365Z,91.90
2019-03-23T00:11:04.760Z,92.00
2019-03-23T00:13:35.209Z,91.50
2019-03-23T00:16:05.627Z,91.80
2019-03-23T00:18:35.999Z,91.10
2019-03-23T00:21:06.428Z,90.90
2019-03-23T00:23:36.738Z,91.20
2019-03-23T00:26:07.155Z,91.00
2019-03-23T00:28:37.668Z,90.60
2019-03-23T00:31:08.125Z,91.00
2019-03-23T00:33:38.599Z,90.80
2019-03-23T00:36:08.988Z,90.90
2019-03-23T00:38:39.364Z,90.90
2019-03-23T00:41:10.153Z,91.00
2019-03-23T00:43:40.613Z,91.00
2019-03-23T00:46:11.069Z,91.00
2019-03-23T00:48:41.518Z,90.90
2019-03-23T00:51:11.965Z,90.50
2019-03-23T00:53:42.335Z,90.50
2019-03-23T00:56:12.764Z,90.90
2019-03-23T00:58:43.169Z,90.80
2019-03-23T01:01:13.630Z,90.80
2019-03-23T01:03:44.076Z,90.80
2019-03-23T01:06:14.523Z,90.70
2019-03-23T01:08:45.000Z,90.70
2019-03-23T01:11:17.426Z,90.60
2019-03-23T01:13:47.559Z,90.30
2019-03-23T01:16:17.976Z,90.50
2019-03-23T01:18:48.360Z,90.50
2019-03-23T01:21:19.848Z,90.30
2019-03-23T01:23:50.267Z,90.30
2019-03-23T01:26:21.684Z,90.10
2019-03-23T01:28:52.193Z,90.10
2019-03-23T01:31:22.598Z,90.10
2019-03-23T01:33:53.135Z,89.80
2019-03-23T01:36:23.520Z,90.00
2019-03-23T01:38:56.359Z,90.20
2019-03-23T01:41:26.790Z,89.10
2019-03-23T01:43:57.201Z,90.00
2019-03-23T01:46:27.621Z,90.30
2019-03-23T01:48:57.981Z,90.20
2019-03-23T01:51:28.375Z,90.30
2019-03-23T01:53:58.803Z,90.10
2019-03-23T01:56:29.226Z,90.20
2019-03-23T01:58:59.633Z,90.50
2019-03-23T02:01:30.037Z,90.50
2019-03-23T02:04:00.477Z,90.60
2019-03-23T02:06:30.911Z,90.60
2019-03-23T02:09:01.401Z,90.80
2019-03-23T02:11:31.796Z,90.80
2019-03-23T02:14:03.686Z,90.90
2019-03-23T02:16:34.098Z,90.60
2019-03-23T02:19:04.731Z,91.10
2019-03-23T02:21:35.065Z,90.90
2019-03-23T02:24:05.568Z,90.80
2019-03-23T02:26:35.911Z,90.70
2019-03-23T02:29:09.417Z,90.90
2019-03-23T02:31:39.792Z,91.20
2019-03-23T02:34:10.260Z,91.20
2019-03-23T02:36:40.631Z,91.30
2019-03-23T02:39:11.069Z,91.50
2019-03-23T02:41:41.447Z,91.70
2019-03-23T02:44:11.827Z,91.80
2019-03-23T02:46:42.268Z,92.00
2019-03-23T02:49:12.642Z,92.00
2019-03-23T02:51:43.079Z,92.20
2019-03-23T02:54:14.932Z,92.20
2019-03-23T02:56:45.686Z,92.00
2019-03-23T02:59:16.120Z,92.00
2019-03-23T03:01:46.515Z,91.80
2019-03-23T03:04:17.614Z,91.80
2019-03-23T03:06:48.031Z,91.80
2019-03-23T03:09:18.426Z,92.30
2019-03-23T03:11:48.871Z,92.20
2019-03-23T03:14:19.274Z,92.10
2019-03-23T03:16:49.730Z,92.30
2019-03-23T03:19:20.141Z,92.30
2019-03-23T03:21:50.614Z,92.50
2019-03-23T03:24:20.996Z,92.10
2019-03-23T03:26:51.428Z,91.90
2019-03-23T03:29:21.971Z,92.10
2019-03-23T03:31:52.357Z,92.00
2019-03-23T03:34:22.705Z,92.00
2019-03-23T03:36:53.171Z,92.00
2019-03-23T03:39:23.606Z,92.20
2019-03-23T03:41:54.071Z,92.10
2019-03-23T03:44:24.751Z,92.00
2019-03-23T03:46:55.158Z,92.20
2019-03-23T03:49:27.534Z,92.30
2019-03-23T03:51:57.628Z,92.40
2019-03-23T03:54:28.068Z,92.40
2019-03-23T03:56:58.488Z,92.60
2019-03-23T03:59:28.873Z,92.60
2019-03-23T04:01:59.300Z,92.70
2019-03-23T04:04:29.720Z,92.70
2019-03-23T04:07:00.117Z,92.90
2019-03-23T04:09:30.910Z,92.90
2019-03-23T04:12:01.355Z,93.00
2019-03-23T04:14:31.743Z,93.30
2019-03-23T04:17:02.179Z,93.30
2019-03-23T04:19:32.541Z,93.60
2019-03-23T04:22:03.029Z,93.70
2019-03-23T04:24:36.164Z,93.80
2019-03-23T04:27:06.634Z,93.70
2019-03-23T04:29:37.230Z,93.60
2019-03-23T04:32:07.802Z,93.60
2019-03-23T04:34:38.271Z,93.50
2019-03-23T04:37:08.691Z,93.60
2019-03-23T04:39:39.095Z,93.90
2019-03-23T04:42:09.495Z,93.90
2019-03-23T04:44:40.777Z,94.00
2019-03-23T04:47:16.435Z,94.00
2019-03-23T04:49:48.967Z,93.90
2019-03-23T04:52:19.414Z,94.00
2019-03-23T04:54:49.896Z,94.10
2019-03-23T04:57:20.299Z,94.20
2019-03-23T04:59:50.717Z,94.40
2019-03-23T05:02:21.283Z,94.50
2019-03-23T05:04:51.673Z,94.20
2019-03-23T05:07:22.195Z,93.70
2019-03-23T05:09:52.631Z,93.80
2019-03-23T05:12:23.048Z,93.70
2019-03-23T05:14:53.556Z,93.90
2019-03-23T05:17:27.065Z,94.20
2019-03-23T05:19:57.543Z,94.20
2019-03-23T05:22:27.916Z,94.10
2019-03-23T05:24:58.401Z,94.00
2019-03-23T05:27:28.943Z,94.00
2019-03-23T05:30:00.881Z,94.00
2019-03-23T05:32:32.909Z,94.10
2019-03-23T05:35:03.845Z,93.80
2019-03-23T05:37:34.307Z,93.50
2019-03-23T05:40:07.207Z,93.30
2019-03-23T05:42:37.686Z,93.70
2019-03-23T05:45:08.522Z,93.80
2019-03-23T05:47:38.917Z,93.70
2019-03-23T05:50:09.949Z,93.30
2019-03-23T05:52:40.432Z,93.20
2019-03-23T05:55:13.687Z,93.10
2019-03-23T05:57:44.632Z,93.20
2019-03-23T06:00:16.931Z,94.00
2019-03-23T06:02:47.497Z,94.50
2019-03-23T06:05:18.065Z,92.90
2019-03-23T06:07:48.545Z,91.90
2019-03-23T06:10:20.802Z,92.30
2019-03-23T06:12:51.147Z,92.80
2019-03-23T06:15:21.640Z,92.70
2019-03-23T06:17:52.086Z,93.60
2019-03-23T06:20:29.498Z,93.60
2019-03-23T06:23:00.416Z,94.00
2019-03-23T06:25:30.884Z,94.50
2019-03-23T06:28:03.574Z,94.80
2019-03-23T06:30:35.805Z,94.30
2019-03-23T06:33:06.337Z,93.40
2019-03-23T06:35:36.872Z,92.50
2019-03-23T06:38:08.681Z,92.50
2019-03-23T06:40:41.541Z,92.40
2019-03-23T06:43:17.350Z,92.50
2019-03-23T06:45:49.029Z,91.40
2019-03-23T06:48:19.509Z,90.30
2019-03-23T06:50:51.619Z,90.60
2019-03-23T06:53:22.104Z,91.10
2019-03-23T06:55:52.647Z,91.20
2019-03-23T06:58:22.987Z,91.20
2019-03-23T07:00:53.402Z,91.10
2019-03-23T07:03:23.787Z,91.00
2019-03-23T07:05:54.179Z,91.30
2019-03-23T07:08:32.028Z,91.90
2019-03-23T07:10:56.758Z,91.40
2019-03-23T07:13:27.375Z,91.30
2019-03-23T07:15:57.817Z,91.80
2019-03-23T07:18:28.205Z,92.10
2019-03-23T07:20:58.652Z,92.50
2019-03-23T07:23:29.116Z,92.40
2019-03-23T07:25:59.566Z,92.40
2019-03-23T07:28:29.958Z,91.90
2019-03-23T07:31:00.673Z,92.10
2019-03-23T07:33:31.181Z,90.90
2019-03-23T07:36:03.344Z,91.00
2019-03-23T07:38:33.746Z,91.10
2019-03-23T07:41:04.187Z,91.40
2019-03-23T07:43:34.601Z,91.80
2019-03-23T07:46:04.997Z,92.10
2019-03-23T07:48:35.523Z,91.80
2019-03-23T07:51:05.925Z,91.20
2019-03-23T07:53:36.373Z,90.80
2019-03-23T07:56:06.776Z,91.60
2019-03-23T07:58:37.468Z,91.40
2019-03-23T08:01:07.922Z,91.00
2019-03-23T08:03:38.500Z,91.00
2019-03-23T08:06:10.952Z,91.00
2019-03-23T08:08:41.089Z,91.40
2019-03-23T08:11:11.468Z,92.00
2019-03-23T08:13:41.953Z,93.10
2019-03-23T08:16:13.546Z,93.10
2019-03-23T08:18:44.048Z,92.00
2019-03-23T08:21:14.528Z,92.30
2019-03-23T08:23:45.063Z,93.20
2019-03-23T08:26:15.860Z,94.10
2019-03-23T08:28:46.316Z,95.60
2019-03-23T08:31:16.789Z,94.70
2019-03-23T08:33:47.188Z,95.10
2019-03-23T08:36:17.693Z,95.40
2019-03-23T08:38:48.240Z,94.40
2019-03-23T08:41:21.793Z,93.70
2019-03-23T08:43:52.350Z,95.10
2019-03-23T08:46:22.796Z,95.90
2019-03-23T08:48:53.200Z,96.80
2019-03-23T08:51:23.628Z,97.40
2019-03-23T08:53:54.041Z,96.80
2019-03-23T08:56:24.440Z,97.10
2019-03-23T08:58:54.822Z,98.50
2019-03-23T09:01:25.242Z,99.40
2019-03-23T09:03:55.731Z,99.90
2019-03-23T09:06:26.139Z,99.90
2019-03-23T09:08:56.532Z,99.90
2019-03-23T09:11:26.924Z,99.90
2019-03-23T09:13:57.323Z,99.90
2019-03-23T09:16:27.722Z,99.90
2019-03-23T09:18:58.139Z,99.90
2019-03-23T09:21:28.562Z,99.60
2019-03-23T09:23:58.928Z,99.70
2019-03-23T09:26:29.805Z,99.90
2019-03-23T09:29:00.160Z,99.90
2019-03-23T09:31:30.682Z,99.90
2019-03-23T09:34:01.059Z,99.90
2019-03-23T09:36:31.545Z,99.90
2019-03-23T09:39:01.902Z,99.90
2019-03-23T09:41:32.383Z,99.60
2019-03-23T09:44:02.748Z,98.70
2019-03-23T09:46:33.188Z,98.40
2019-03-23T09:49:03.736Z,96.90
2019-03-23T09:51:34.083Z,97.40
2019-03-23T09:54:04.530Z,96.90
2019-03-23T09:56:34.937Z,97.20
2019-03-23T09:59:05.335Z,96.60
2019-03-23T10:01:35.813Z,97.50
2019-03-23T10:04:06.264Z,95.70
2019-03-23T10:06:36.751Z,96.90
2019-03-23T10:09:07.277Z,97.40
2019-03-23T10:11:37.737Z,97.60
2019-03-23T10:14:08.255Z,97.60
2019-03-23T10:16:39.511Z,96.90
2019-03-23T10:19:09.892Z,96.00
2019-03-23T10:21:40.342Z,95.80
2019-03-23T10:24:10.732Z,96.30
2019-03-23T10:26:41.204Z,95.70
2019-03-23T10:29:11.679Z,95.90
2019-03-23T10:31:42.225Z,96.60
2019-03-23T10:34:12.652Z,96.30
2019-03-23T10:36:43.041Z,95.90
2019-03-23T10:39:13.458Z,95.60
2019-03-23T10:41:43.930Z,95.30
2019-03-23T10:44:14.364Z,95.50
2019-03-23T10:46:44.753Z,95.60
2019-03-23T10:49:15.092Z,95.00
2019-03-23T10:51:45.532Z,94.70
2019-03-23T10:54:15.945Z,94.60
2019-03-23T10:56:46.487Z,94.70
2019-03-23T10:59:16.941Z,95.30
2019-03-23T11:01:47.421Z,95.00
2019-03-23T11:04:17.986Z,95.70
2019-03-23T11:06:48.378Z,96.60
2019-03-23T11:09:18.795Z,97.10
2019-03-23T11:11:49.230Z,97.40
2019-03-23T11:14:19.552Z,97.00
2019-03-23T11:16:49.957Z,97.10
2019-03-23T11:19:20.373Z,97.20
2019-03-23T11:21:50.830Z,97.60
2019-03-23T11:24:21.261Z,96.80
2019-03-23T11:26:51.706Z,96.10
2019-03-23T11:29:22.193Z,95.70
2019-03-23T11:31:52.702Z,95.20
2019-03-23T11:34:23.095Z,95.00
2019-03-23T11:36:53.843Z,94.40
2019-03-23T11:39:24.223Z,94.20
2019-03-23T11:41:57.513Z,94.70
2019-03-23T11:44:27.954Z,93.70
2019-03-23T11:46:58.480Z,93.50
2019-03-23T11:49:28.921Z,93.50
2019-03-23T11:52:01.732Z,93.30
2019-03-23T11:54:32.196Z,92.70
2019-03-23T11:57:02.585Z,92.10
2019-03-23T11:59:36.101Z,92.00
2019-03-23T12:02:06.508Z,92.10
2019-03-23T12:04:37.019Z,92.20
2019-03-23T12:07:07.452Z,92.20
2019-03-23T12:09:38.744Z,92.50
2019-03-23T12:12:09.107Z,92.80
2019-03-23T12:14:39.547Z,93.00
2019-03-23T12:17:09.931Z,93.20
2019-03-23T12:19:40.423Z,93.50
2019-03-23T12:22:10.892Z,93.50
2019-03-23T12:24:41.558Z,93.50
2019-03-23T12:27:12.073Z,93.50
2019-03-23T12:29:42.501Z,93.00
2019-03-23T12:32:13.244Z,92.60
2019-03-23T12:34:43.646Z,92.30
2019-03-23T12:37:14.061Z,92.60
2019-03-23T12:39:44.524Z,93.20
2019-03-23T12:42:15.031Z,93.10
2019-03-23T12:44:45.488Z,93.10
2019-03-23T12:47:15.990Z,93.40
2019-03-23T12:49:47.517Z,93.30
2019-03-23T12:52:19.357Z,92.90
2019-03-23T12:54:52.651Z,92.40
2019-03-23T12:57:24.746Z,92.40
2019-03-23T12:59:56.729Z,92.30
2019-03-23T13:02:27.298Z,92.40
2019-03-23T13:04:57.736Z,92.40
2019-03-23T13:07:28.222Z,92.40
2019-03-23T13:10:01.544Z,92.40
2019-03-23T13:12:33.438Z,92.60
2019-03-23T13:15:06.425Z,92.40
2019-03-23T13:17:38.743Z,91.90
2019-03-23T13:20:09.780Z,92.20
2019-03-23T13:22:40.188Z,92.00
2019-03-23T13:25:13.400Z,92.10
2019-03-23T13:27:43.883Z,92.30
2019-03-23T13:30:19.139Z,92.70
2019-03-23T13:32:49.634Z,92.70
2019-03-23T13:35:20.039Z,92.70
2019-03-23T13:37:51.132Z,92.90
2019-03-23T13:40:28.613Z,92.90
2019-03-23T13:42:59.142Z,93.00
2019-03-23T13:45:31.563Z,92.70
2019-03-23T13:48:02.264Z,92.80
2019-03-23T13:50:32.799Z,93.00
2019-03-23T13:53:03.133Z,93.00
2019-03-23T13:55:35.219Z,93.20
2019-03-23T13:58:11.501Z,93.40
2019-03-23T14:00:42.222Z,93.60
2019-03-23T14:03:12.927Z,93.90
2019-03-23T14:05:43.421Z,93.90
2019-03-23T14:08:13.831Z,94.20
2019-03-23T14:10:44.259Z,94.20
2019-03-23T14:13:14.735Z,94.40
2019-03-23T14:15:45.158Z,94.60
2019-03-23T14:18:17.388Z,94.70
2019-03-23T14:20:47.642Z,94.70
2019-03-23T14:23:20.979Z,94.90
2019-03-23T14:25:54.033Z,94.80
2019-03-23T14:28:24.773Z,94.50
2019-03-23T14:30:57.948Z,94.40
2019-03-23T14:33:30.090Z,94.50
2019-03-23T14:36:00.496Z,94.60
2019-03-23T14:38:32.629Z,94.70
2019-03-23T14:41:04.188Z,94.90
2019-03-23T14:43:36.325Z,95.00
2019-03-23T14:46:06.817Z,95.10
2019-03-23T14:48:38.716Z,94.90
2019-03-23T14:51:09.110Z,95.10
2019-03-23T14:53:39.695Z,95.40
2019-03-23T14:56:11.603Z,95.50
2019-03-23T14:58:42.088Z,95.50
2019-03-23T15:01:17.951Z,95.30
2019-03-23T15:03:48.486Z,95.30
2019-03-23T15:06:21.159Z,95.20
2019-03-23T15:08:51.618Z,95.30
2019-03-23T15:11:22.049Z,95.40
2019-03-23T15:13:52.587Z,95.40
2019-03-23T15:16:23.046Z,95.70
2019-03-23T15:18:53.468Z,95.90
2019-03-23T15:21:23.840Z,96.10
2019-03-23T15:23:54.270Z,96.20
2019-03-23T15:26:24.802Z,96.10
2019-03-23T15:28:55.248Z,96.20
2019-03-23T15:31:25.663Z,96.10
2019-03-23T15:33:56.142Z,96.20
2019-03-23T15:36:27.845Z,96.20
2019-03-23T15:38:58.384Z,96.40
2019-03-23T15:41:28.795Z,96.70
2019-03-23T15:44:00.683Z,96.80
2019-03-23T15:46:34.057Z,97.00
2019-03-23T15:49:06.996Z,97.20
2019-03-23T15:51:37.391Z,97.20
2019-03-23T15:54:09.603Z,97.40
2019-03-23T15:56:40.056Z,97.40
2019-03-23T15:59:11.902Z,97.50
2019-03-23T16:01:45.531Z,97.70
2019-03-23T16:04:18.208Z,97.60
2019-03-23T16:06:51.540Z,97.70
2019-03-23T16:09:21.905Z,97.50
2019-03-23T16:11:53.838Z,97.30
2019-03-23T16:14:26.086Z,97.00
2019-03-23T16:16:56.616Z,97.20
2019-03-23T16:19:27.019Z,97.10
2019-03-23T16:22:01.026Z,97.40
2019-03-23T16:24:33.030Z,97.70
2019-03-23T16:27:03.591Z,98.10
2019-03-23T16:29:34.053Z,98.50
2019-03-23T16:32:04.407Z,98.70
2019-03-23T16:34:34.832Z,98.90
2019-03-23T16:37:05.240Z,99.00
2019-03-23T16:39:35.767Z,99.20
2019-03-23T16:42:06.202Z,99.30
2019-03-23T16:44:36.678Z,99.40
2019-03-23T16:47:07.069Z,99.50
2019-03-23T16:49:37.535Z,99.70
2019-03-23T16:52:09.422Z,99.70
2019-03-23T16:54:41.452Z,99.70
2019-03-23T16:57:11.937Z,99.70
2019-03-23T16:59:42.303Z,99.50
2019-03-23T17:02:13.942Z,99.30
2019-03-23T17:04:46.380Z,99.10
2019-03-23T17:07:19.763Z,99.40
2019-03-23T17:09:52.448Z,99.40
2019-03-23T17:12:24.700Z,98.80
2019-03-23T17:14:58.901Z,99.10
2019-03-23T17:17:31.744Z,98.60
2019-03-23T17:20:04.094Z,98.50
2019-03-23T17:22:37.959Z,98.60
2019-03-23T17:25:10.276Z,98.50
2019-03-23T17:27:42.898Z,98.40
2019-03-23T17:30:18.269Z,98.30
2019-03-23T17:32:53.742Z,98.10
2019-03-23T17:35:25.899Z,98.20
2019-03-23T17:37:58.282Z,98.20
2019-03-23T17:40:30.771Z,98.40
2019-03-23T17:43:06.150Z,98.30
2019-03-23T17:45:37.147Z,98.40
2019-03-23T17:48:09.539Z,98.60
2019-03-23T17:50:42.016Z,98.40
2019-03-23T17:53:14.499Z,98.40
2019-03-23T17:55:48.852Z,98.50
2019-03-23T17:58:26.070Z,98.50
2019-03-23T18:00:58.507Z,98.20
2019-03-23T18:03:30.811Z,98.40
2019-03-23T18:06:07.332Z,98.10
2019-03-23T18:08:39.366Z,98.00
2019-03-23T18:11:13.098Z,97.90
2019-03-23T18:13:45.462Z,97.80
2019-03-23T18:16:20.704Z,97.90
2019-03-23T18:18:56.120Z,98.00
2019-03-23T18:21:28.233Z,98.00
2019-03-23T18:24:01.461Z,97.90
2019-03-23T18:26:33.691Z,98.10
2019-03-23T18:29:06.836Z,98.20
2019-03-23T18:31:39.443Z,98.00
2019-03-23T18:34:11.892Z,97.80
2019-03-23T18:36:44.200Z,98.00
2019-03-23T18:39:16.781Z,97.80
2019-03-23T18:41:49.198Z,97.80
2019-03-23T18:44:21.845Z,97.90
2019-03-23T18:46:54.549Z,97.90
2019-03-23T18:49:26.955Z,98.00
2019-03-23T18:51:59.388Z,98.00
2019-03-23T18:54:31.881Z,98.00
2019-03-23T18:57:04.191Z,97.90
2019-03-23T18:59:36.751Z,97.90
2019-03-23T19:02:09.096Z,98.00
2019-03-23T19:04:44.136Z,98.00
2019-03-23T19:07:16.342Z,98.30
2019-03-23T19:09:50.326Z,98.10
2019-03-23T19:12:22.765Z,98.10
2019-03-23T19:14:58.167Z,98.20
2019-03-23T19:17:32.278Z,98.20
2019-03-23T19:20:06.324Z,98.50
2019-03-23T19:22:38.489Z,98.10
2019-03-23T19:25:18.143Z,98.30
2019-03-23T19:27:45.969Z,98.40
2019-03-23T19:30:20.851Z,98.40
2019-03-23T19:32:53.244Z,98.40
2019-03-23T19:35:27.120Z,98.50
2019-03-23T19:38:01.521Z,98.50
2019-03-23T19:40:33.296Z,98.50
2019-03-23T19:43:05.957Z,98.50
2019-03-23T19:45:38.481Z,98.50
2019-03-23T19:48:11.163Z,98.60
2019-03-23T19:50:43.767Z,98.70
2019-03-23T19:53:17.590Z,98.70
2019-03-23T19:55:50.240Z,98.80
2019-03-23T19:58:25.272Z,98.90
2019-03-23T20:00:57.541Z,99.00
2019-03-23T20:03:30.897Z,99.00
2019-03-23T20:06:04.741Z,99.10
2019-03-23T20:08:37.290Z,99.10
2019-03-23T20:11:11.496Z,99.10
2019-03-23T20:13:44.361Z,99.10
2019-03-23T20:16:17.469Z,99.10
2019-03-23T20:18:49.881Z,99.10
2019-03-23T20:21:22.198Z,99.00
2019-03-23T20:23:55.836Z,99.30
2019-03-23T20:26:27.973Z,99.00
2019-03-23T20:29:01.344Z,99.00
2019-03-23T20:31:33.740Z,98.90
2019-03-23T20:34:06.040Z,98.80
2019-03-23T20:36:38.456Z,98.70
2019-03-23T20:39:10.772Z,98.60
2019-03-23T20:41:43.855Z,98.50
2019-03-23T20:44:15.892Z,98.50
2019-03-23T20:46:48.373Z,98.60
2019-03-23T20:49:23.432Z,98.40
2019-03-23T20:51:56.088Z,98.50
2019-03-23T20:54:29.878Z,98.60
2019-03-23T20:57:02.278Z,98.70
2019-03-23T20:59:35.523Z,98.80
2019-03-23T21:02:11.148Z,98.80
2019-03-23T21:04:44.648Z,99.10
2019-03-23T21:07:16.909Z,98.80
2019-03-23T21:09:55.157Z,98.80
2019-03-23T21:12:29.568Z,98.80
2019-03-23T21:15:02.803Z,98.80
2019-03-23T21:17:35.816Z,98.50
2019-03-23T21:20:10.185Z,98.80
2019-03-23T21:22:42.125Z,98.80
2019-03-23T21:25:14.179Z,98.80
2019-03-23T21:27:47.579Z,98.80
2019-03-23T21:30:19.640Z,98.80
2019-03-23T21:32:51.327Z,98.80
2019-03-23T21:35:24.382Z,98.60
2019-03-23T21:37:55.507Z,98.60
2019-03-23T21:40:26.300Z,98.50
2019-03-23T21:42:56.893Z,98.60
2019-03-23T21:45:27.423Z,98.60
2019-03-23T21:47:57.975Z,98.70
2019-03-23T21:50:28.488Z,98.80
2019-03-23T21:53:01.536Z,98.80
2019-03-23T21:55:31.972Z,99.00
2019-03-23T21:58:02.379Z,98.70
2019-03-23T22:00:35.859Z,98.80
2019-03-23T22:03:06.738Z,98.70
2019-03-23T22:05:37.113Z,98.70
2019-03-23T22:08:11.069Z,98.70
2019-03-23T22:10:41.449Z,98.80
2019-03-23T22:13:11.868Z,99.00
2019-03-23T22:15:42.317Z,99.00
2019-03-23T22:18:12.697Z,99.00
2019-03-23T22:20:43.175Z,99.20
2019-03-23T22:23:16.219Z,98.90
2019-03-23T22:25:48.883Z,98.90
2019-03-23T22:28:19.425Z,98.90
2019-03-23T22:30:49.945Z,99.00
2019-03-23T22:33:20.414Z,99.10
2019-03-23T22:35:50.932Z,99.20
2019-03-23T22:38:21.316Z,99.00
2019-03-23T22:40:51.715Z,99.20
2019-03-23T22:43:22.102Z,99.40
2019-03-23T22:45:52.457Z,99.60
2019-03-23T22:48:22.874Z,99.40
2019-03-23T22:50:53.253Z,99.50
2019-03-23T22:53:23.696Z,99.60
2019-03-23T22:55:54.071Z,99.70
2019-03-23T22:58:24.476Z,99.60
2019-03-23T23:00:55.941Z,99.60
2019-03-23T23:03:26.309Z,99.70
2019-03-23T23:05:56.723Z,99.70
2019-03-23T23:08:27.010Z,99.70
2019-03-23T23:10:57.419Z,99.40
2019-03-23T23:13:27.860Z,99.50
2019-03-23T23:15:58.260Z,99.60
2019-03-23T23:18:28.713Z,99.70
2019-03-23T23:20:59.152Z,99.60
2019-03-23T23:23:29.547Z,99.60
2019-03-23T23:26:00.017Z,99.80
2019-03-23T23:28:30.429Z,99.90
2019-03-23T23:31:00.855Z,99.90
2019-03-23T23:33:31.276Z,99.90
2019-03-23T23:36:01.770Z,99.90
2019-03-23T23:38:32.234Z,99.90
2019-03-23T23:41:02.642Z,99.90
2019-03-23T23:43:33.159Z,99.90
2019-03-23T23:46:03.616Z,99.90
2019-03-23T23:48:34.047Z,99.90
2019-03-23T23:51:04.435Z,99.90
2019-03-23T23:53:34.871Z,99.90
2019-03-23T23:56:05.276Z,99.90
2019-03-23T23:58:35.651Z,99.90
